Latest Weather Observations for Narrandera Airport

IDN60801

Issued at 1:02 pm EDT Monday 23 January 2017 (issued every 30 minutes, with the page automatically refreshed every 10 minutes)

About weather observations | Map of weather stations | Latest weather observations for NSW | Other Formats
Station Details ID: 074148 Name: NARRANDERA AIRPORT AWS Lat: -34.70 Lon: 146.51 Height: 145.0 m
Data from the previous 72 hours. | See also: Recent months at Narrandera Airport
Date/Time
EDT
Temp
°C
App
Temp
°C
Dew
Point
°C
Rel
Hum
%
Delta-T
°C
Wind Press
QNH
hPa
Press
MSL
hPa
Rain since
9am
mm
Dir  Spd
km/h
Gust
km/h
Spd
kts
Gust
kts
23/01:00pm 39.1 36.2 16.1 26 14.8 NNW 26 41 14 22 1007.1 1006.3 0.0
23/12:33pm 38.8 34.2 15.2 24 15.0 NNW 33 54 18 29 1007.4 1006.6 0.0
23/12:30pm 38.5 33.9 15.0 25 14.9 NNW 33 44 18 24 1007.5 1006.7 0.0
23/12:00pm 37.8 34.8 16.7 29 13.7 NNW 28 41 15 22 1007.7 1006.9 0.0
23/11:30am 36.6 33.0 17.2 31 12.6 NNW 32 41 17 22 1008.0 1007.2 0.0
23/11:00am 35.5 31.9 17.2 33 11.9 NNW 32 48 17 26 1008.2 1007.4 0.0
23/10:55am 35.3 32.0 17.0 33 11.8 NNW 30 48 16 26 1008.1 1007.3 0.0
23/10:30am 34.4 30.6 16.7 34 11.3 N 32 43 17 23 1008.3 1007.5 0.0
23/10:00am 33.4 29.2 16.3 36 10.9 N 33 44 18 24 1008.5 1007.7 0.0
23/09:30am 32.5 29.5 15.9 36 10.4 N 26 41 14 22 1008.8 1008.0 0.0
23/09:00am 31.6 28.7 15.1 36 10.2 N 24 32 13 17 1009.0 1008.2 0.0
23/08:30am 30.7 28.3 14.3 36 10.0 NNE 20 35 11 19 1009.0 1008.2 0.0
23/08:00am 29.3 25.3 13.1 37 9.7 NE 26 33 14 18 1008.8 1008.0 0.0
23/07:30am 28.7 26.0 13.4 39 9.1 NE 20 30 11 16 1008.6 1007.8 0.0
23/07:00am 27.4 25.5 13.0 41 8.5 NE 15 20 8 11 1008.6 1007.8 0.0
23/06:30am 27.0 24.1 12.3 40 8.6 NE 19 24 10 13 1008.6 1007.8 0.0
23/06:00am 27.0 24.1 12.3 40 8.6 NNE 19 24 10 13 1008.3 1007.5 0.0
23/05:30am 27.5 24.4 12.3 39 8.9 NNE 20 24 11 13 1008.1 1007.3 0.0
23/05:00am 28.2 25.2 12.5 37 9.2 NNE 20 26 11 14 1007.9 1007.1 0.0
23/04:30am 28.8 25.1 12.7 37 9.5 NNE 24 30 13 16 1008.1 1007.3 0.0
23/04:00am 28.3 26.9 13.4 40 8.9 NE 13 26 7 14 1008.2 1007.4 0.0
23/03:30am 26.3 25.2 14.4 48 7.1 NE 13 17 7 9 1008.3 1007.5 0.0
23/03:00am 23.2 23.6 14.7 58 5.1 ESE 6 9 3 5 1008.3 1007.5 0.0
23/02:30am 23.5 24.7 13.9 55 5.7 CALM 0 6 0 3 1008.8 1008.0 0.0
23/02:00am 21.9 21.5 14.0 61 4.6 ESE 9 9 5 5 1009.1 1008.3 0.0
23/01:30am 21.6 22.8 13.8 61 4.5 CALM 0 0 0 0 1009.3 1008.5 0.0
23/01:00am 21.8 22.3 13.9 61 4.6 SSE 4 7 2 4 1009.4 1008.6 0.0
23/12:30am 22.5 23.6 13.6 57 5.2 CALM 0 0 0 0 1009.5 1008.7 0.0
23/12:00am 23.5 24.6 13.4 53 5.9 CALM 0 4 0 2 1009.7 1008.9 0.0
 
Date/Time
EDT
Temp
°C
App
Temp
°C
Dew
Point
°C
Rel
Hum
%
Delta-T
°C
Wind Press
QNH
hPa
Press
MSL
hPa
Rain since
9am
mm
Dir  Spd
km/h
Gust
km/h
Spd
kts
Gust
kts
22/11:30pm 23.5 23.5 13.7 54 5.8 SSE 6 7 3 4 1010.0 1009.2 0.0
22/11:00pm 23.3 24.5 13.8 55 5.6 CALM 0 0 0 0 1010.0 1009.2 0.0
22/10:30pm 24.1 25.5 14.5 55 5.7 CALM 0 0 0 0 1010.1 1009.3 0.0
22/10:00pm 24.8 25.9 13.4 49 6.7 CALM 0 0 0 0 1010.1 1009.3 0.0
22/09:30pm 26.3 26.9 12.0 41 8.3 CALM 0 0 0 0 1009.9 1009.1 0.0
22/09:00pm 27.5 28.2 12.3 39 8.9 CALM 0 0 0 0 1009.7 1008.9 0.0
22/08:30pm 29.4 28.6 11.0 32 10.6 S 6 7 3 4 1009.7 1008.9 0.0
22/08:00pm 33.6 32.2 9.0 22 14.0 SW 6 9 3 5 1009.7 1008.9 0.0
22/07:30pm 34.9 33.1 7.9 19 15.2 WSW 7 11 4 6 1009.5 1008.7 0.0
22/07:00pm 35.7 33.5 7.7 18 15.8 WSW 9 17 5 9 1009.4 1008.6 0.0
22/06:30pm 35.9 33.3 7.9 18 15.8 WNW 11 20 6 11 1009.4 1008.6 0.0
22/06:00pm 36.4 35.3 8.3 18 16.0 WSW 4 11 2 6 1009.4 1008.6 0.0
22/05:30pm 36.3 33.6 7.4 17 16.3 WNW 11 26 6 14 1009.7 1008.9 0.0
22/05:00pm 35.7 33.5 7.7 18 15.8 NW 9 22 5 12 1009.9 1009.1 0.0
22/04:30pm 35.9 32.8 8.7 19 15.6 NW 15 24 8 13 1010.3 1009.5 0.0
22/04:00pm 35.4 32.9 8.3 19 15.4 N 11 19 6 10 1010.6 1009.8 0.0
22/03:30pm 35.4 33.1 9.0 20 15.1 WNW 11 19 6 10 1010.9 1010.1 0.0
22/03:00pm 34.4 30.9 8.9 21 14.6 NNW 17 30 9 16 1011.2 1010.4 0.0
22/02:30pm 34.6 30.8 9.1 21 14.6 N 19 28 10 15 1011.6 1010.8 0.0
22/02:00pm 33.9 31.3 9.2 22 14.1 N 13 24 7 13 1011.9 1011.1 0.0
22/01:30pm 32.7 29.4 8.2 22 13.7 N 15 26 8 14 1012.4 1011.5 0.0
22/01:00pm 32.6 31.5 10.0 25 13.0 WNW 6 17 3 9 1013.0 1012.2 0.0
22/12:30pm 32.0 30.6 9.5 25 12.8 NNW 7 17 4 9 1013.4 1012.6 0.0
22/12:00pm 31.0 28.1 9.8 27 12.1 N 15 22 8 12 1013.8 1013.0 0.0
22/11:30am 30.4 28.4 12.8 34 10.5 NNE 15 24 8 13 1014.1 1013.3 0.0
22/11:00am 29.3 27.7 12.7 36 9.8 NE 13 24 7 13 1014.3 1013.5 0.0
22/10:30am 27.5 26.0 13.1 41 8.5 NNE 13 22 7 12 1014.4 1013.6 0.0
22/10:00am 26.0 24.6 14.5 49 6.9 ENE 15 24 8 13 1014.5 1013.7 0.0
22/09:30am 23.7 21.9 14.4 56 5.5 ENE 17 24 9 13 1014.8 1014.0 0.0
22/09:00am 22.4 20.2 14.3 60 4.8 ENE 19 24 10 13 1015.1 1014.3 0.0
22/08:30am 20.9 18.4 13.6 63 4.2 ENE 19 26 10 14 1015.0 1014.2 0.0
22/08:00am 20.0 17.9 13.5 66 3.7 E 17 24 9 13 1014.7 1013.9 0.0
22/07:30am 18.8 18.1 13.2 70 3.2 ESE 9 15 5 8 1014.5 1013.7 0.0
22/07:00am 16.8 15.9 12.7 77 2.3 SE 9 11 5 6 1014.3 1013.5 0.0
22/06:30am 15.6 14.3 12.4 81 1.8 ESE 11 15 6 8 1014.0 1013.2 0.0
22/06:00am 15.8 14.3 12.0 78 2.1 ESE 11 13 6 7 1013.9 1013.1 0.0
22/05:30am 16.4 15.4 12.2 76 2.3 SE 9 13 5 7 1013.7 1012.9 0.0
22/05:00am 17.7 16.4 12.4 71 3.0 E 11 17 6 9 1013.4 1012.6 0.0
22/04:30am 17.3 16.1 12.8 75 2.5 E 11 19 6 10 1013.3 1012.5 0.0
22/04:00am 14.8 14.0 11.0 78 2.0 SSE 6 9 3 5 1013.1 1012.3 0.0
22/03:30am 14.2 13.9 10.2 77 2.1 SSW 2 7 1 4 1013.0 1012.2 0.0
22/03:00am 14.8 14.4 11.0 78 2.0 ESE 4 9 2 5 1013.3 1012.5 0.0
22/02:30am 15.2 15.1 9.3 68 3.1 CALM 0 9 0 5 1013.1 1012.3 0.0
22/02:00am 17.8 18.2 11.1 65 3.7 CALM 0 0 0 0 1012.5 1011.6 0.0
22/01:30am 16.4 16.3 9.6 64 3.6 CALM 0 0 0 0 1012.8 1012.0 0.0
22/01:00am 18.0 18.0 9.9 59 4.3 CALM 0 0 0 0 1012.7 1011.9 0.0
22/12:30am 17.0 16.7 11.3 69 3.1 SSW 4 7 2 4 1012.6 1011.7 0.0
22/12:00am 16.9 17.5 12.0 73 2.7 CALM 0 2 0 1 1012.4 1011.5 0.0
 
Date/Time
EDT
Temp
°C
App
Temp
°C
Dew
Point
°C
Rel
Hum
%
Delta-T
°C
Wind Press
QNH
hPa
Press
MSL
hPa
Rain since
9am
mm
Dir  Spd
km/h
Gust
km/h
Spd
kts
Gust
kts
21/11:30pm 17.4 18.1 12.1 71 2.9 CALM 0 0 0 0 1012.2 1011.4 0.0
21/11:00pm 18.1 18.5 11.2 64 3.8 CALM 0 0 0 0 1012.2 1011.4 0.0
21/10:30pm 19.1 19.2 10.1 56 4.8 CALM 0 0 0 0 1012.0 1011.2 0.0
21/10:00pm 20.5 20.5 9.7 50 5.8 CALM 0 0 0 0 1012.0 1011.2 0.0
21/09:30pm 21.4 21.1 8.7 44 6.8 CALM 0 0 0 0 1011.7 1010.9 0.0
21/09:00pm 22.9 22.2 8.6 40 7.7 SW 2 6 1 3 1011.6 1010.8 0.0
21/08:30pm 26.3 24.4 6.9 29 10.3 SW 6 7 3 4 1011.3 1010.5 0.0
21/08:00pm 28.8 25.7 3.6 20 12.8 S 9 13 5 7 1011.1 1010.3 0.0
21/07:30pm 30.0 26.2 3.9 19 13.4 SSW 13 19 7 10 1010.8 1010.0 0.0
21/07:00pm 30.5 26.2 3.5 18 13.8 SSW 15 20 8 11 1010.4 1009.6 0.0
21/06:30pm 31.0 26.8 3.9 18 14.0 SW 15 20 8 11 1010.3 1009.5 0.0
21/06:00pm 31.1 26.4 3.2 17 14.3 WSW 17 24 9 13 1010.3 1009.5 0.0
21/05:30pm 30.8 25.9 2.1 16 14.4 SW 17 26 9 14 1010.4 1009.6 0.0
21/05:00pm 30.7 26.0 1.1 15 14.6 SSW 15 24 8 13 1010.4 1009.6 0.0
21/04:30pm 30.6 26.2 2.8 17 14.1 S 15 22 8 12 1010.7 1009.9 0.0
21/04:00pm 30.0 25.1 2.3 17 13.9 SW 17 26 9 14 1011.0 1010.2 0.0
21/03:30pm 29.4 25.1 3.4 19 13.2 S 15 20 8 11 1011.2 1010.4 0.0
21/03:00pm 29.6 25.6 5.0 21 12.9 SW 15 28 8 15 1011.3 1010.5 0.0
21/02:30pm 29.3 25.4 5.4 22 12.5 SW 15 24 8 13 1011.4 1010.6 0.0
21/02:00pm 28.3 25.0 6.4 25 11.6 SW 13 26 7 14 1011.6 1010.8 0.0
21/01:30pm 27.4 24.0 7.8 29 10.6 S 15 26 8 14 1011.7 1010.9 0.0
21/01:00pm 26.6 23.6 7.6 30 10.2 SW 13 24 7 13 1011.9 1011.1 0.0
21/12:30pm 25.3 23.3 8.7 35 9.0 SSW 9 24 5 13 1012.4 1011.5 0.0
21/12:00pm 24.4 21.8 9.2 38 8.3 SW 13 19 7 10 1012.5 1011.6 0.0
21/11:30am 22.9 21.3 8.6 40 7.7 WSW 7 17 4 9 1012.7 1011.9 0.0
21/11:00am 22.2 19.7 9.7 45 6.8 S 13 19 7 10 1012.6 1011.7 0.0
21/10:30am 21.4 19.2 10.9 51 5.8 SSE 13 17 7 9 1012.7 1011.9 0.0
21/10:00am 19.5 17.0 9.7 53 5.3 S 13 20 7 11 1012.5 1011.6 0.0
21/09:30am 18.2 15.6 9.5 57 4.6 S 13 19 7 10 1012.6 1011.7 0.0
21/09:00am 17.1 13.8 9.5 61 4.0 SSW 17 20 9 11 1012.5 1011.6 11.6
21/08:30am 16.0 12.7 9.4 65 3.4 SSW 17 24 9 13 1012.0 1011.2 11.6
21/08:00am 14.5 11.6 9.5 72 2.6 SSW 15 22 8 12 1011.8 1011.0 11.6
21/07:30am 13.3 10.3 9.2 76 2.1 SSW 15 20 8 11 1011.4 1010.6 11.6
21/07:00am 12.7 11.2 9.2 79 1.8 SSW 7 13 4 7 1011.1 1010.3 11.6
21/06:30am 12.1 9.7 8.8 80 1.7 SW 11 15 6 8 1010.7 1009.9 11.6
21/06:00am 12.1 10.2 8.9 81 1.6 SW 9 13 5 7 1010.4 1009.6 11.6
21/05:30am 12.5 10.5 8.8 78 1.9 SSW 9 15 5 8 1009.7 1008.9 11.6
21/05:00am 13.0 9.2 8.9 76 2.1 SW 19 28 10 15 1009.0 1008.2 11.6
21/04:30am 13.4 10.0 9.1 75 2.2 SW 17 24 9 13 1008.8 1008.0 11.6
21/04:00am 13.7 10.3 9.0 73 2.4 SW 17 26 9 14 1008.5 1007.7 11.6
21/03:30am 14.0 10.6 9.0 72 2.6 SW 17 24 9 13 1008.4 1007.6 11.6
21/03:00am 14.4 10.4 9.0 70 2.8 SW 20 28 11 15 1008.1 1007.3 11.6
21/02:30am 14.9 11.8 8.8 67 3.1 SW 15 20 8 11 1008.2 1007.4 11.6
21/02:00am 15.2 11.8 9.1 67 3.2 SW 17 24 9 13 1007.9 1007.1 11.6
21/01:30am 15.8 12.4 9.2 65 3.4 SW 17 24 9 13 1007.7 1006.9 11.6
21/01:00am 16.3 12.4 9.5 64 3.6 SW 20 30 11 16 1007.4 1006.6 11.6
21/12:30am 16.8 12.9 9.5 62 3.8 SW 20 30 11 16 1007.2 1006.4 11.6
21/12:00am 17.5 13.2 9.4 59 4.3 SW 22 32 12 17 1006.8 1006.0 11.6
 
Date/Time
EDT
Temp
°C
App
Temp
°C
Dew
Point
°C
Rel
Hum
%
Delta-T
°C
Wind Press
QNH
hPa
Press
MSL
hPa
Rain since
9am
mm
Dir  Spd
km/h
Gust
km/h
Spd
kts
Gust
kts
20/11:30pm 17.9 13.6 9.5 58 4.4 SW 22 30 12 16 1006.4 1005.5 11.6
20/11:00pm 18.5 14.7 9.8 57 4.7 SW 20 32 11 17 1005.9 1005.0 11.6
20/10:30pm 19.1 15.4 10.1 56 4.8 SW 20 32 11 17 1005.5 1004.6 11.6
20/10:00pm 20.0 15.9 10.1 53 5.4 SW 22 32 12 17 1004.8 1004.0 11.6
20/09:30pm 20.4 16.7 10.2 52 5.5 SW 20 30 11 16 1004.7 1003.9 11.6
20/09:00pm 21.2 17.5 10.1 49 6.1 SW 20 30 11 16 1004.1 1003.3 11.6
20/08:30pm 22.1 16.9 10.3 47 6.5 SSW 28 39 15 21 1003.3 1002.5 11.6
20/08:00pm 23.2 17.3 10.3 44 7.2 SSW 32 44 17 24 1002.3 1001.5 11.6
20/07:30pm 24.4 19.1 11.4 44 7.4 SSW 30 44 16 24 1001.5 1000.7 11.6
20/07:16pm 25.0 19.4 12.2 44 7.4 SSW 33 52 18 28 1001.1 1000.3 11.6
20/07:00pm 25.6 20.5 13.1 46 7.4 SSW 32 44 17 24 1000.6 999.8 11.6
20/06:32pm 26.6 22.2 13.0 43 8.0 SW 28 46 15 25 999.9 999.0 11.6
20/06:30pm 26.5 21.9 13.6 45 7.7 SW 30 46 16 25 999.9 999.0 11.6
20/06:25pm 26.4 22.1 13.2 44 7.8 SW 28 46 15 25 999.8 998.9 11.6
20/06:00pm 26.8 21.6 12.8 42 8.3 SW 32 48 17 26 999.5 998.6 11.6
20/05:44pm 27.7 23.7 14.0 43 8.2 SW 28 46 15 25 999.3 998.4 11.6
20/05:30pm 27.8 23.3 14.8 45 7.9 SW 32 44 17 24 999.2 998.3 11.6
20/05:15pm 26.8 22.7 14.9 48 7.2 SW 30 50 16 27 999.1 998.2 11.6
20/05:00pm 26.1 22.3 15.8 53 6.4 SW 30 44 16 24 999.1 998.2 11.6
20/04:45pm 26.5 22.3 15.8 51 6.6 SW 32 50 17 27 998.9 998.0 11.6
20/04:30pm 25.8 22.7 16.6 56 5.7 SW 28 43 15 23 998.8 997.9 11.6
20/04:00pm 25.8 24.0 18.7 65 4.6 SW 26 41 14 22 998.8 997.9 11.6
20/03:30pm 23.8 21.7 18.9 74 3.1 SW 28 46 15 25 998.9 998.0 11.6
20/03:29pm 23.8 21.5 18.4 72 3.4 SW 28 46 15 25 998.9 998.0 11.6
20/03:00pm 23.2 21.4 19.6 80 2.3 SW 28 43 15 23 998.8 997.9 11.6
20/02:30pm 22.6 21.6 20.5 88 1.4 WSW 26 43 14 23 998.6 997.7 11.6
20/02:00pm 21.8 22.3 21.1 96 0.5 SW 20 30 11 16 997.7 996.9 11.6
20/01:30pm 25.9 25.6 23.2 85 1.8 WNW 30 48 16 26 996.9 996.1 0.8
20/01:07pm 26.5 24.6 22.8 80 2.5 WNW 37 56 20 30 996.9 996.1 0.6

Other Formats:

Comma delimited format used in spreadsheet applications
http://www.bom.gov.au/fwo/IDN60801/IDN60801.95706.axf

JavaScript Object Notation format (JSON) in row-major order
http://www.bom.gov.au/fwo/IDN60801/IDN60801.95706.json